Time;durP1;ratioP1;P1;durP2;ratioP2;P2;SDS_P1;SDS_P2;PMS_P1;PMS_P2;Temp;Humidity;BMP_temperature;BMP_pressure;BME280_temperature;BME280_humidity;BME280_pressure;Samples;Min_cycle;Max_cycle;Signal;HPM_P1;HPM_P2
2021/12/19 00:01:00;;;;;;;10.60;7.18;;;7.30;99.90;;;;;;4904110;29;20038;-88
2021/12/19 00:08:54;;;;;;;10.27;6.70;;;7.10;99.90;;;;;;4921382;29;20189;-88
2021/12/19 00:11:29;;;;;;;10.15;6.50;;;7.10;99.90;;;;;;4904141;29;20094;-88
2021/12/19 00:13:56;;;;;;;10.27;6.18;;;7.10;99.90;;;;;;4904867;29;20518;-88
2021/12/19 00:16:22;;;;;;;11.63;7.78;;;7.10;99.90;;;;;;4904590;29;20032;-90
2021/12/19 00:18:50;;;;;;;9.35;6.20;;;7.00;99.90;;;;;;4904743;29;20379;-89
2021/12/19 00:21:17;;;;;;;8.63;5.75;;;6.90;99.90;;;;;;4904377;29;20032;-88
2021/12/19 00:23:45;;;;;;;7.90;5.07;;;6.90;99.90;;;;;;4904256;29;20494;-89
2021/12/19 00:26:11;;;;;;;10.00;6.18;;;6.90;99.90;;;;;;4903483;29;20032;-89
2021/12/19 00:28:38;;;;;;;10.55;5.72;;;6.90;99.90;;;;;;4903702;29;20028;-88
2021/12/19 00:31:05;;;;;;;8.88;5.65;;;6.80;99.90;;;;;;4903460;29;20038;-90
2021/12/19 00:33:31;;;;;;;10.48;5.95;;;6.80;99.90;;;;;;4903834;29;20020;-88
2021/12/19 00:35:56;;;;;;;10.90;6.57;;;6.80;99.90;;;;;;4903441;29;20084;-89
2021/12/19 00:38:23;;;;;;;10.32;6.75;;;6.80;99.90;;;;;;4903442;29;20023;-88
2021/12/19 00:40:49;;;;;;;10.27;6.13;;;6.80;99.90;;;;;;4920283;29;20032;-88
2021/12/19 00:43:34;;;;;;;12.68;6.78;;;6.80;99.90;;;;;;4903133;29;20024;-89
2021/12/19 00:46:06;;;;;;;11.10;6.15;;;6.70;99.90;;;;;;4903559;29;20104;-88
2021/12/19 00:48:34;;;;;;;10.15;6.60;;;6.70;99.90;;;;;;4903855;29;20118;-89
2021/12/19 00:51:00;;;;;;;10.32;6.30;;;6.70;99.90;;;;;;4902115;29;20052;-88
2021/12/19 00:53:25;;;;;;;11.35;7.00;;;6.70;99.90;;;;;;4903590;29;20032;-88
2021/12/19 00:55:52;;;;;;;10.20;6.07;;;6.70;99.90;;;;;;4920771;29;20039;-89
2021/12/19 00:58:20;;;;;;;10.20;6.35;;;6.70;99.90;;;;;;4921175;29;20103;-89
2021/12/19 01:00:45;;;;;;;10.07;5.97;;;6.70;99.90;;;;;;4903372;29;20027;-88
2021/12/19 01:03:11;;;;;;;12.05;7.18;;;6.70;99.90;;;;;;4903558;29;20016;-88
2021/12/19 01:05:39;;;;;;;10.68;6.28;;;6.80;99.90;;;;;;4903456;29;20036;-88
2021/12/19 01:08:05;;;;;;;11.02;6.90;;;6.80;99.90;;;;;;4904578;29;20016;-88
2021/12/19 01:10:32;;;;;;;12.75;6.35;;;6.80;99.90;;;;;;4905388;29;20043;-88
2021/12/19 01:13:02;;;;;;;11.80;7.13;;;6.80;99.90;;;;;;4896789;29;20024;-87
2021/12/19 01:15:30;;;;;;;13.55;7.88;;;6.80;99.90;;;;;;4921103;29;20032;-88
2021/12/19 01:17:58;;;;;;;13.02;8.13;;;6.80;99.90;;;;;;4903712;29;20024;-89
2021/12/19 01:20:25;;;;;;;11.98;7.32;;;6.80;99.90;;;;;;4903858;29;20032;-85
2021/12/19 01:22:52;;;;;;;11.63;6.70;;;6.80;99.90;;;;;;4903713;29;20043;-86
2021/12/19 01:25:19;;;;;;;12.15;6.43;;;6.80;99.90;;;;;;4903767;29;20043;-86
2021/12/19 01:27:45;;;;;;;14.07;8.05;;;6.80;99.90;;;;;;4904260;29;20091;-87
2021/12/19 01:30:13;;;;;;;14.65;7.32;;;6.80;99.90;;;;;;4905713;29;20075;-86
2021/12/19 01:32:40;;;;;;;14.10;7.82;;;6.80;99.90;;;;;;4909131;29;20036;-86
2021/12/19 01:35:08;;;;;;;13.52;7.93;;;6.80;99.90;;;;;;4928316;29;20012;-86
2021/12/19 01:37:37;;;;;;;15.25;7.97;;;6.80;99.90;;;;;;4921228;29;20035;-85
2021/12/19 01:40:05;;;;;;;16.52;8.57;;;6.80;99.90;;;;;;4904546;29;20053;-89
2021/12/19 01:42:37;;;;;;;16.20;8.25;;;6.90;99.90;;;;;;4906870;29;20052;-88
2021/12/19 01:45:05;;;;;;;16.48;9.05;;;6.90;99.90;;;;;;4922606;29;20029;-89
2021/12/19 01:47:31;;;;;;;17.60;8.90;;;6.90;99.90;;;;;;4908116;29;20064;-89
2021/12/19 01:49:57;;;;;;;17.65;9.15;;;6.90;99.90;;;;;;4904219;29;20036;-86
2021/12/19 01:52:24;;;;;;;21.52;9.15;;;6.90;99.90;;;;;;4909993;29;20039;-88
2021/12/19 01:54:53;;;;;;;19.85;9.63;;;6.80;99.90;;;;;;4920337;29;20024;-86
2021/12/19 01:57:22;;;;;;;19.33;9.23;;;6.90;99.90;;;;;;4920788;29;20026;-83
2021/12/19 01:59:50;;;;;;;18.33;9.30;;;6.90;99.90;;;;;;4934928;29;20047;-86
2021/12/19 02:02:16;;;;;;;19.92;9.32;;;6.80;99.90;;;;;;4912028;29;20100;-86
2021/12/19 02:04:43;;;;;;;16.83;8.68;;;6.90;99.90;;;;;;4931954;29;20025;-85
2021/12/19 02:07:10;;;;;;;21.50;10.82;;;6.90;99.90;;;;;;4905817;29;20028;-88
2021/12/19 02:09:36;;;;;;;18.42;9.32;;;6.90;99.90;;;;;;4905174;29;20036;-87
2021/12/19 02:12:03;;;;;;;20.02;9.80;;;6.90;99.90;;;;;;4908245;29;20418;-89
2021/12/19 02:14:29;;;;;;;17.65;8.98;;;6.90;99.90;;;;;;4905222;29;20028;-90
2021/12/19 02:16:55;;;;;;;16.60;7.95;;;7.00;99.90;;;;;;4905929;29;20127;-90
2021/12/19 02:19:24;;;;;;;19.15;8.35;;;7.00;99.90;;;;;;4904911;29;20036;-90
2021/12/19 02:21:50;;;;;;;19.80;9.63;;;7.00;99.90;;;;;;4901329;29;20059;-90
2021/12/19 02:24:16;;;;;;;20.40;9.35;;;7.00;99.90;;;;;;4904245;29;20035;-88
2021/12/19 02:26:43;;;;;;;18.50;8.27;;;7.00;99.90;;;;;;4905492;29;20043;-90
2021/12/19 02:29:10;;;;;;;20.33;8.80;;;7.00;99.90;;;;;;4925112;29;20422;-89
2021/12/19 02:31:36;;;;;;;18.58;9.02;;;7.00;99.90;;;;;;4903902;29;20032;-89
2021/12/19 02:34:09;;;;;;;19.90;9.35;;;7.00;99.90;;;;;;4904739;29;20473;-91
2021/12/19 02:50:12;;;;;;;16.92;8.57;;;7.10;99.90;;;;;;4911466;29;20098;-90
2021/12/19 02:52:38;;;;;;;17.07;9.47;;;7.00;99.90;;;;;;4902067;29;20020;-90
2021/12/19 02:55:07;;;;;;;22.88;10.68;;;7.10;99.90;;;;;;4902129;29;20647;-87
2021/12/19 02:57:35;;;;;;;21.30;10.90;;;7.10;99.90;;;;;;4901858;29;20036;-89
2021/12/19 03:00:01;;;;;;;20.63;9.95;;;7.10;99.90;;;;;;4901380;29;20028;-87
2021/12/19 03:02:26;;;;;;;22.30;10.45;;;7.10;99.90;;;;;;4901396;29;20071;-89
2021/12/19 03:04:58;;;;;;;19.95;9.43;;;7.10;99.90;;;;;;4901241;29;20123;-89
2021/12/19 03:07:25;;;;;;;22.15;10.40;;;7.10;99.90;;;;;;4920556;29;20021;-90
2021/12/19 03:18:00;;;;;;;20.33;10.27;;;7.10;99.90;;;;;;4919189;29;20063;-90
2021/12/19 03:20:32;;;;;;;21.15;10.15;;;7.10;99.90;;;;;;4901815;29;20030;-89
2021/12/19 03:22:58;;;;;;;21.80;9.48;;;7.10;99.90;;;;;;4901459;29;20025;-89
2021/12/19 03:25:25;;;;;;;20.38;10.30;;;7.10;99.90;;;;;;4902916;29;20020;-89
2021/12/19 03:27:51;;;;;;;20.75;8.98;;;7.10;99.90;;;;;;4915027;29;20060;-88
2021/12/19 03:30:17;;;;;;;18.20;8.63;;;7.10;99.90;;;;;;4918449;29;20027;-87
2021/12/19 03:32:43;;;;;;;13.88;7.45;;;7.10;99.90;;;;;;4919285;29;20025;-88
2021/12/19 03:35:09;;;;;;;15.20;7.85;;;7.10;99.90;;;;;;4921128;29;20016;-89
2021/12/19 03:37:35;;;;;;;14.55;7.53;;;7.10;99.90;;;;;;4922545;29;20024;-87
2021/12/19 03:40:10;;;;;;;13.00;6.80;;;7.10;99.90;;;;;;4923189;29;20008;-91
2021/12/19 03:42:38;;;;;;;12.05;6.07;;;7.10;99.90;;;;;;4938351;29;20021;-87
2021/12/19 03:45:06;;;;;;;13.63;7.13;;;7.10;99.90;;;;;;4920201;29;20036;-89
2021/12/19 03:47:32;;;;;;;12.02;5.68;;;7.10;99.90;;;;;;4920268;29;20037;-88
2021/12/19 03:50:00;;;;;;;11.85;5.80;;;7.10;99.90;;;;;;4917409;29;20111;-90
2021/12/19 03:52:26;;;;;;;11.52;6.25;;;7.10;99.90;;;;;;4920636;29;20060;-91
2021/12/19 03:54:52;;;;;;;12.95;6.32;;;7.10;99.90;;;;;;4919849;29;20024;-89
2021/12/19 03:57:17;;;;;;;13.68;6.93;;;7.10;99.90;;;;;;4916588;29;20024;-91
2021/12/19 03:59:47;;;;;;;12.88;6.03;;;7.10;99.90;;;;;;4901726;29;20387;-89
2021/12/19 04:02:12;;;;;;;13.18;6.60;;;7.10;99.90;;;;;;4913498;29;20032;-89
2021/12/19 04:04:39;;;;;;;12.38;6.25;;;7.10;99.90;;;;;;4903566;29;20032;-89
2021/12/19 04:07:05;;;;;;;15.98;8.40;;;7.10;99.90;;;;;;4902667;29;20032;-88
2021/12/19 04:09:31;;;;;;;14.73;7.90;;;7.10;99.90;;;;;;4900922;29;20036;-89
2021/12/19 04:11:57;;;;;;;16.77;8.07;;;7.00;99.90;;;;;;4900949;29;20035;-89
2021/12/19 04:14:23;;;;;;;17.73;8.75;;;7.10;99.90;;;;;;4898789;29;20475;-89
2021/12/19 04:16:48;;;;;;;19.23;9.63;;;7.10;99.90;;;;;;4898773;29;20044;-89
2021/12/19 04:19:14;;;;;;;20.35;9.95;;;7.00;99.90;;;;;;4898635;29;20021;-88
2021/12/19 04:21:41;;;;;;;19.38;9.40;;;7.00;99.90;;;;;;4899709;29;20032;-88
2021/12/19 04:24:07;;;;;;;18.27;9.02;;;7.00;99.90;;;;;;4899446;29;20083;-87
2021/12/19 04:26:34;;;;;;;19.00;8.82;;;7.10;99.90;;;;;;4901498;29;20650;-89
2021/12/19 04:28:59;;;;;;;17.33;9.27;;;7.10;99.90;;;;;;4902719;29;20024;-88
2021/12/19 04:31:25;;;;;;;21.85;9.90;;;7.10;99.90;;;;;;4901966;29;20372;-87
2021/12/19 04:33:50;;;;;;;22.88;10.93;;;7.10;99.90;;;;;;4902221;29;20497;-89
2021/12/19 04:36:23;;;;;;;23.08;10.52;;;7.10;99.90;;;;;;4901825;29;20035;-87
2021/12/19 04:52:38;;;;;;;;;;;7.10;99.90;;;;;;4904549;29;20037;-87
2021/12/19 04:57:47;;;;;;;23.05;10.45;;;7.10;99.90;;;;;;4902437;29;20040;-88
2021/12/19 05:00:18;;;;;;;18.45;9.55;;;7.10;99.90;;;;;;4900732;29;20506;-86
2021/12/19 05:02:55;;;;;;;23.30;11.10;;;7.10;99.90;;;;;;4900746;29;20032;-88
2021/12/19 05:05:48;;;;;;;22.23;12.00;;;7.20;99.90;;;;;;4900675;29;20060;-86
2021/12/19 05:16:26;;;;;;;19.65;10.00;;;7.20;99.90;;;;;;4901808;29;20039;-89
2021/12/19 05:18:54;;;;;;;16.83;9.27;;;7.20;99.90;;;;;;4900395;29;20092;-87
2021/12/19 05:21:25;;;;;;;18.75;9.80;;;7.20;99.90;;;;;;4900240;29;20033;-89
2021/12/19 05:24:15;;;;;;;17.42;9.98;;;7.20;99.90;;;;;;4900363;29;20025;-87
2021/12/19 05:26:42;;;;;;;15.57;8.85;;;7.20;99.90;;;;;;4901094;29;20107;-89
2021/12/19 05:29:09;;;;;;;17.83;8.27;;;7.30;99.90;;;;;;4900305;29;20032;-88
2021/12/19 05:31:35;;;;;;;14.80;8.68;;;7.30;99.90;;;;;;4899812;29;20024;-88
2021/12/19 05:34:01;;;;;;;16.27;7.75;;;7.30;99.90;;;;;;4899549;29;20623;-88
2021/12/19 05:47:07;;;;;;;13.77;6.82;;;7.40;99.90;;;;;;4902076;29;20054;-88
2021/12/19 05:49:34;;;;;;;12.77;6.80;;;7.40;99.90;;;;;;4902580;29;20100;-87
2021/12/19 05:52:00;;;;;;;11.75;6.30;;;7.40;99.90;;;;;;4902566;29;20051;-87
2021/12/19 05:54:26;;;;;;;13.07;5.90;;;7.40;99.90;;;;;;4902557;29;20020;-88
2021/12/19 05:56:52;;;;;;;9.70;5.13;;;7.40;99.90;;;;;;4902232;29;20028;-88
2021/12/19 05:59:18;;;;;;;10.40;5.53;;;7.40;99.90;;;;;;4902545;29;20024;-88
2021/12/19 06:01:46;;;;;;;10.20;5.03;;;7.50;99.90;;;;;;4903039;29;20034;-88
2021/12/19 06:04:12;;;;;;;10.57;5.30;;;7.40;99.90;;;;;;4919550;29;20046;-87
2021/12/19 06:06:38;;;;;;;9.88;4.72;;;7.50;99.90;;;;;;4903019;29;20063;-87
2021/12/19 06:09:05;;;;;;;9.93;4.75;;;7.50;99.90;;;;;;4903020;29;20037;-88
2021/12/19 06:11:31;;;;;;;10.77;4.88;;;7.50;99.90;;;;;;4902578;29;20032;-87
2021/12/19 06:13:57;;;;;;;8.77;4.45;;;7.50;99.90;;;;;;4902983;29;20052;-88
2021/12/19 06:16:22;;;;;;;9.73;4.68;;;7.50;99.90;;;;;;4902793;29;20028;-86
2021/12/19 06:18:48;;;;;;;9.27;4.68;;;7.50;99.90;;;;;;4902732;29;20115;-86
2021/12/19 06:21:14;;;;;;;10.07;4.35;;;7.50;99.90;;;;;;4902645;29;20032;-88
2021/12/19 06:23:40;;;;;;;9.02;4.13;;;7.50;99.90;;;;;;4920290;29;20024;-87
2021/12/19 06:26:10;;;;;;;8.25;4.03;;;7.50;99.90;;;;;;4905015;29;20032;-87
2021/12/19 06:28:36;;;;;;;8.40;4.13;;;7.50;99.90;;;;;;4906880;29;20032;-88
2021/12/19 06:31:01;;;;;;;9.00;3.83;;;7.50;99.90;;;;;;4912680;29;20036;-87
2021/12/19 06:33:27;;;;;;;7.22;3.40;;;7.50;99.90;;;;;;4922535;29;20099;-84
2021/12/19 06:35:53;;;;;;;9.55;4.70;;;7.50;99.90;;;;;;4919512;29;20232;-87
2021/12/19 06:38:18;;;;;;;6.88;3.25;;;7.50;99.90;;;;;;4912530;29;20020;-87
2021/12/19 06:40:44;;;;;;;6.05;2.65;;;7.50;99.90;;;;;;4909251;29;20031;-87
2021/12/19 06:43:10;;;;;;;6.70;2.53;;;7.50;99.90;;;;;;4926845;29;20051;-86
2021/12/19 06:45:36;;;;;;;4.90;2.42;;;7.50;99.90;;;;;;4912181;29;20039;-87
2021/12/19 06:48:01;;;;;;;4.97;2.03;;;7.40;99.90;;;;;;4924134;29;20056;-88
2021/12/19 06:50:27;;;;;;;4.95;1.90;;;7.50;99.90;;;;;;4901688;29;20035;-87
2021/12/19 06:52:53;;;;;;;4.70;1.80;;;7.40;99.90;;;;;;4901963;29;20035;-87
2021/12/19 06:55:19;;;;;;;4.13;1.55;;;7.40;99.90;;;;;;4901448;29;20088;-88
2021/12/19 06:57:46;;;;;;;5.35;1.65;;;7.40;99.90;;;;;;4901723;29;20040;-87
2021/12/19 07:00:19;;;;;;;4.05;1.48;;;7.40;99.90;;;;;;4918412;29;20036;-87
2021/12/19 07:02:45;;;;;;;3.55;1.40;;;7.30;99.90;;;;;;4901023;29;20028;-88
2021/12/19 07:05:11;;;;;;;4.53;1.80;;;7.40;99.90;;;;;;4901300;29;20056;-87
2021/12/19 07:07:36;;;;;;;4.78;1.70;;;7.30;99.90;;;;;;4902846;29;20128;-88
2021/12/19 07:10:03;;;;;;;3.92;1.33;;;7.40;99.90;;;;;;4903371;29;20123;-87
2021/12/19 07:12:28;;;;;;;3.45;1.25;;;7.30;99.90;;;;;;4902181;29;20065;-86
2021/12/19 07:14:56;;;;;;;3.25;1.55;;;7.30;99.90;;;;;;4917906;29;20028;-89
2021/12/19 07:17:22;;;;;;;3.22;1.30;;;7.20;99.90;;;;;;4901226;29;20382;-88
2021/12/19 07:19:47;;;;;;;3.78;0.95;;;7.20;99.90;;;;;;4900995;29;20028;-87
2021/12/19 07:22:13;;;;;;;2.53;0.88;;;7.20;99.90;;;;;;4902054;29;20117;-88
2021/12/19 07:24:39;;;;;;;2.13;0.70;;;7.10;99.90;;;;;;4918969;29;20056;-88
2021/12/19 07:27:05;;;;;;;3.38;0.93;;;7.00;99.90;;;;;;4901373;29;20119;-89
2021/12/19 07:29:31;;;;;;;2.60;0.93;;;7.00;99.90;;;;;;4918320;29;20024;-88
2021/12/19 07:31:57;;;;;;;2.28;0.95;;;7.00;99.90;;;;;;4901364;29;20090;-87
2021/12/19 07:34:30;;;;;;;1.55;0.70;;;6.90;99.90;;;;;;4901043;29;20020;-88
2021/12/19 07:36:55;;;;;;;1.80;0.60;;;6.90;99.90;;;;;;4901337;29;20364;-86
2021/12/19 07:39:27;;;;;;;0.98;0.50;;;6.90;99.90;;;;;;4901830;29;20020;-92
2021/12/19 07:41:52;;;;;;;3.47;0.70;;;6.90;99.90;;;;;;4902535;29;20035;-87
2021/12/19 07:44:18;;;;;;;1.98;0.68;;;7.00;99.90;;;;;;4901396;29;20029;-86
2021/12/19 07:46:44;;;;;;;1.48;0.45;;;6.90;99.90;;;;;;4901645;29;20036;-88
2021/12/19 07:49:11;;;;;;;1.48;0.43;;;7.00;99.90;;;;;;4900876;29;20043;-88
2021/12/19 07:51:36;;;;;;;1.85;0.60;;;7.00;99.90;;;;;;4900791;29;20119;-89
2021/12/19 07:54:03;;;;;;;1.90;0.60;;;7.00;99.90;;;;;;4901804;29;20059;-88
2021/12/19 07:56:28;;;;;;;1.77;0.73;;;7.00;99.90;;;;;;4887021;29;20048;-88
2021/12/19 07:58:54;;;;;;;1.98;0.70;;;7.00;99.90;;;;;;4901565;29;20035;-88
2021/12/19 08:01:20;;;;;;;3.42;0.93;;;7.00;99.90;;;;;;4904996;29;20017;-89
2021/12/19 08:03:45;;;;;;;2.92;1.00;;;7.00;99.90;;;;;;4904200;29;20744;-88
2021/12/19 08:06:11;;;;;;;2.97;0.95;;;7.00;99.90;;;;;;4903384;29;20075;-88
2021/12/19 08:08:38;;;;;;;3.00;1.13;;;7.00;99.90;;;;;;4903396;29;20031;-88
2021/12/19 08:13:48;;;;;;;3.58;1.00;;;7.00;99.90;;;;;;4920526;29;20036;-89
2021/12/19 08:16:13;;;;;;;2.83;1.20;;;7.00;99.90;;;;;;4903267;29;20032;-88
2021/12/19 08:18:39;;;;;;;3.22;1.20;;;7.10;99.90;;;;;;4903356;29;20123;-89
2021/12/19 08:21:05;;;;;;;2.85;1.10;;;7.00;99.90;;;;;;4908242;29;20032;-89
2021/12/19 08:23:32;;;;;;;3.70;1.13;;;7.10;99.90;;;;;;4897433;29;20039;-88
2021/12/19 08:25:58;;;;;;;2.00;0.80;;;7.10;99.90;;;;;;4899087;29;20036;-87
2021/12/19 08:28:24;;;;;;;2.15;0.93;;;7.10;99.90;;;;;;4899938;29;20035;-87
2021/12/19 08:30:50;;;;;;;2.17;0.90;;;7.10;99.90;;;;;;4897448;29;20402;-86
2021/12/19 08:33:16;;;;;;;2.70;0.90;;;7.10;99.90;;;;;;4882284;29;20021;-87
2021/12/19 08:35:41;;;;;;;2.42;1.00;;;7.00;99.90;;;;;;4882471;29;20043;-85
2021/12/19 08:38:07;;;;;;;2.17;0.75;;;7.00;99.90;;;;;;4896558;29;20032;-87
2021/12/19 08:40:33;;;;;;;2.55;1.15;;;7.00;99.90;;;;;;4906724;29;20058;-88
2021/12/19 08:42:58;;;;;;;1.90;0.80;;;7.00;99.90;;;;;;4910901;29;20446;-87
2021/12/19 08:45:25;;;;;;;2.22;1.00;;;7.00;99.90;;;;;;4905458;29;20108;-87
2021/12/19 08:47:51;;;;;;;2.55;1.08;;;7.10;99.90;;;;;;4897445;29;20476;-85
2021/12/19 08:50:18;;;;;;;2.30;0.90;;;7.20;99.90;;;;;;4897086;29;20053;-86
2021/12/19 08:52:44;;;;;;;2.17;0.95;;;7.30;99.90;;;;;;4896711;29;20044;-88
2021/12/19 08:55:11;;;;;;;1.60;1.00;;;7.30;99.90;;;;;;4897260;29;20115;-85
2021/12/19 08:57:38;;;;;;;1.45;0.73;;;7.30;99.90;;;;;;4899058;29;20550;-89
2021/12/19 09:00:08;;;;;;;2.03;1.00;;;7.40;99.90;;;;;;4898861;29;20025;-86
2021/12/19 09:02:34;;;;;;;1.83;0.63;;;7.30;99.90;;;;;;4898171;29;20029;-85
2021/12/19 09:05:00;;;;;;;2.17;0.77;;;7.30;99.90;;;;;;4898275;29;20080;-87
2021/12/19 09:07:26;;;;;;;2.90;1.23;;;7.30;99.90;;;;;;4898082;29;20610;-87
2021/12/19 09:09:51;;;;;;;2.53;0.95;;;7.20;99.90;;;;;;4898112;29;20486;-87
2021/12/19 09:12:17;;;;;;;1.83;0.70;;;7.20;99.90;;;;;;4897469;29;20036;-88
2021/12/19 09:14:43;;;;;;;2.38;0.85;;;7.20;99.90;;;;;;4899375;29;20048;-86
2021/12/19 09:17:09;;;;;;;2.28;0.80;;;7.20;99.90;;;;;;4899976;29;20056;-88
2021/12/19 09:19:35;;;;;;;1.10;0.70;;;7.20;99.90;;;;;;4898326;29;20084;-88
2021/12/19 09:22:00;;;;;;;2.92;1.10;;;7.30;99.90;;;;;;4899302;29;20032;-87
2021/12/19 09:24:26;;;;;;;4.93;1.10;;;7.30;99.90;;;;;;4898989;29;20106;-88
2021/12/19 09:26:52;;;;;;;2.80;1.20;;;7.30;99.90;;;;;;4897723;29;20047;-89
2021/12/19 09:29:17;;;;;;;3.53;1.13;;;7.30;99.90;;;;;;4897110;29;20096;-87
2021/12/19 09:31:43;;;;;;;1.92;1.02;;;7.30;99.90;;;;;;4896545;29;20071;-86
2021/12/19 09:34:10;;;;;;;1.98;0.90;;;7.30;99.90;;;;;;4897363;29;20050;-87
2021/12/19 09:36:36;;;;;;;2.88;1.10;;;7.30;99.90;;;;;;4901238;29;20025;-92
2021/12/19 09:39:03;;;;;;;1.80;0.90;;;7.40;99.90;;;;;;4905019;29;20032;-86
2021/12/19 09:41:33;;;;;;;3.53;1.25;;;7.40;99.90;;;;;;4908670;29;20085;-89
2021/12/19 09:44:03;;;;;;;2.03;0.93;;;7.40;99.90;;;;;;4908555;29;20279;-88
2021/12/19 09:46:36;;;;;;;1.88;0.85;;;7.40;99.90;;;;;;4908240;29;20041;-88
2021/12/19 09:49:05;;;;;;;4.15;1.02;;;7.40;99.90;;;;;;4910055;29;20045;-85
2021/12/19 09:51:30;;;;;;;2.22;1.00;;;7.40;99.90;;;;;;4913235;29;20087;-86
2021/12/19 09:53:56;;;;;;;2.53;0.90;;;7.40;99.90;;;;;;4920694;29;20066;-89
2021/12/19 09:56:22;;;;;;;1.95;1.02;;;7.40;99.90;;;;;;4910470;29;20059;-92
2021/12/19 09:58:50;;;;;;;1.70;0.90;;;7.40;99.90;;;;;;4909072;29;20036;-92
2021/12/19 10:01:17;;;;;;;3.47;1.08;;;7.40;99.90;;;;;;4906297;29;20028;-91
2021/12/19 10:03:45;;;;;;;3.45;1.00;;;7.50;99.90;;;;;;4905413;29;20034;-91
2021/12/19 10:06:26;;;;;;;3.35;1.70;;;7.50;99.90;;;;;;4903125;29;20123;-89
2021/12/19 10:09:21;;;;;;;4.15;1.73;;;7.50;99.90;;;;;;4899850;29;20032;-87
2021/12/19 10:14:32;;;;;;;5.10;2.67;;;7.50;99.90;;;;;;4917316;29;20037;-86
2021/12/19 10:17:02;;;;;;;6.13;3.30;;;7.50;99.90;;;;;;4902327;29;20028;-92
2021/12/19 10:19:43;;;;;;;5.53;2.60;;;7.50;99.90;;;;;;4902844;29;20024;-88
2021/12/19 10:22:48;;;;;;;7.13;3.38;;;7.50;99.90;;;;;;4936345;29;20060;-91
2021/12/19 10:25:24;;;;;;;6.03;2.85;;;7.50;99.90;;;;;;4828492;29;20114;-92
2021/12/19 10:28:28;;;;;;;5.82;2.83;;;7.50;99.90;;;;;;4845521;29;20485;-92
2021/12/19 10:30:55;;;;;;;11.70;5.07;;;7.50;99.90;;;;;;4900732;29;20036;-91
2021/12/19 10:33:25;;;;;;;8.05;3.80;;;7.50;99.90;;;;;;4902523;29;20031;-91
2021/12/19 10:35:57;;;;;;;8.13;4.15;;;7.50;99.90;;;;;;4907637;29;20028;-91
2021/12/19 10:38:38;;;;;;;6.40;3.88;;;7.50;99.90;;;;;;4916347;29;20024;-88
2021/12/19 10:41:09;;;;;;;7.57;3.90;;;7.50;99.90;;;;;;4912233;29;20047;-90
2021/12/19 10:43:59;;;;;;;7.80;3.60;;;7.50;99.90;;;;;;4912591;29;20135;-90
2021/12/19 10:46:30;;;;;;;7.90;3.63;;;7.50;99.90;;;;;;4929647;29;20475;-87
2021/12/19 10:48:58;;;;;;;6.38;3.33;;;7.50;99.90;;;;;;4922573;29;20056;-87
2021/12/19 10:51:25;;;;;;;6.95;3.55;;;7.50;99.90;;;;;;4908104;29;20033;-87
2021/12/19 10:53:53;;;;;;;7.10;3.08;;;7.50;99.90;;;;;;4915183;29;20024;-89
2021/12/19 10:56:33;;;;;;;7.78;2.97;;;7.60;99.90;;;;;;4920316;29;20023;-87
2021/12/19 10:59:07;;;;;;;7.45;3.50;;;7.60;99.90;;;;;;4918952;29;20346;-88
2021/12/19 11:01:36;;;;;;;8.95;3.30;;;7.60;99.90;;;;;;4932162;29;20334;-87
2021/12/19 11:04:24;;;;;;;7.05;3.17;;;7.60;99.90;;;;;;4917966;29;20024;-90
2021/12/19 11:07:02;;;;;;;6.55;3.08;;;7.70;99.90;;;;;;4905347;29;20048;-88
2021/12/19 11:09:34;;;;;;;7.00;3.22;;;7.60;99.90;;;;;;4903891;29;20036;-89
2021/12/19 11:12:02;;;;;;;8.50;4.28;;;7.60;99.90;;;;;;4902965;29;20043;-90
2021/12/19 11:14:37;;;;;;;10.88;4.60;;;7.60;99.90;;;;;;4915952;29;20035;-90
2021/12/19 11:17:20;;;;;;;7.75;3.95;;;7.60;99.90;;;;;;4925771;29;20043;-87
2021/12/19 11:19:47;;;;;;;7.70;4.22;;;7.60;99.90;;;;;;4906647;29;20032;-90
2021/12/19 11:22:23;;;;;;;9.02;4.38;;;7.60;99.90;;;;;;4902150;29;20537;-89
2021/12/19 11:24:52;;;;;;;6.53;3.60;;;7.60;99.90;;;;;;4902854;29;20029;-88
2021/12/19 11:27:18;;;;;;;5.75;3.47;;;7.60;99.90;;;;;;4911352;29;20094;-87
2021/12/19 11:29:45;;;;;;;7.32;3.78;;;7.60;99.90;;;;;;4922260;29;20568;-89
2021/12/19 11:32:18;;;;;;;8.93;3.92;;;7.60;99.90;;;;;;4930089;29;20035;-86
2021/12/19 11:35:08;;;;;;;12.40;4.47;;;7.60;99.90;;;;;;4925374;29;20020;-87
2021/12/19 11:38:01;;;;;;;8.77;4.00;;;7.60;99.90;;;;;;4912444;29;20032;-85
2021/12/19 11:40:32;;;;;;;7.78;4.18;;;7.60;99.90;;;;;;4924045;29;20047;-86
2021/12/19 11:43:06;;;;;;;7.95;4.30;;;7.60;99.90;;;;;;4928215;29;20008;-89
2021/12/19 11:48:17;;;;;;;10.82;4.00;;;7.60;99.90;;;;;;4943796;29;20036;-89
2021/12/19 11:50:53;;;;;;;9.82;4.57;;;7.60;99.90;;;;;;4928353;29;20058;-89
2021/12/19 11:53:20;;;;;;;7.47;4.80;;;7.60;99.90;;;;;;4911587;29;20060;-88
2021/12/19 11:55:47;;;;;;;8.00;4.25;;;7.60;99.90;;;;;;4928028;29;20009;-90
2021/12/19 11:58:14;;;;;;;8.80;4.00;;;7.60;99.90;;;;;;4928086;28;20016;-90
2021/12/19 12:00:54;;;;;;;8.30;5.28;;;7.60;99.90;;;;;;4928277;28;20040;-90
2021/12/19 12:03:23;;;;;;;8.88;4.88;;;7.60;99.90;;;;;;4928102;29;20085;-89
2021/12/19 12:05:51;;;;;;;10.88;4.90;;;7.60;99.90;;;;;;4928065;29;20099;-88
2021/12/19 12:08:24;;;;;;;8.43;4.53;;;7.60;99.90;;;;;;4928338;29;20012;-88
2021/12/19 12:10:54;;;;;;;9.07;4.82;;;7.50;99.90;;;;;;4927753;28;20031;-88
2021/12/19 12:13:40;;;;;;;8.32;4.25;;;7.60;99.90;;;;;;4925848;29;20036;-90
2021/12/19 12:16:14;;;;;;;8.65;4.05;;;7.60;99.90;;;;;;4926252;29;20111;-90
2021/12/19 12:18:42;;;;;;;7.32;4.15;;;7.60;99.90;;;;;;4923019;29;20032;-92
2021/12/19 12:21:48;;;;;;;9.25;4.15;;;7.70;99.90;;;;;;4922742;29;20478;-90
2021/12/19 12:24:13;;;;;;;7.63;3.22;;;7.70;99.90;;;;;;4909987;29;20247;-89
2021/12/19 12:27:04;;;;;;;6.60;3.10;;;7.70;99.90;;;;;;4916653;29;20497;-91
2021/12/19 12:29:34;;;;;;;7.22;3.38;;;7.70;99.90;;;;;;4909460;29;20035;-89
2021/12/19 12:32:00;;;;;;;6.57;3.47;;;7.70;99.90;;;;;;4906662;29;20031;-87
2021/12/19 12:34:27;;;;;;;6.03;3.03;;;7.70;99.90;;;;;;4907188;29;20030;-89
2021/12/19 12:36:52;;;;;;;5.93;2.92;;;7.70;99.90;;;;;;4910900;29;20028;-89
2021/12/19 12:39:26;;;;;;;7.35;3.25;;;7.60;99.90;;;;;;4916378;29;20547;-89
2021/12/19 12:42:01;;;;;;;7.93;3.28;;;7.60;99.90;;;;;;4906554;29;20020;-89
2021/12/19 12:44:27;;;;;;;6.07;2.88;;;7.70;99.90;;;;;;4906834;29;20107;-88
2021/12/19 12:46:57;;;;;;;6.57;2.80;;;7.70;99.90;;;;;;4905884;29;20130;-87
2021/12/19 12:49:25;;;;;;;5.88;3.15;;;7.60;99.90;;;;;;4905532;29;20044;-87
2021/12/19 12:52:02;;;;;;;8.43;3.08;;;7.70;99.90;;;;;;4904575;29;20029;-90
2021/12/19 12:54:35;;;;;;;8.35;3.35;;;7.70;99.90;;;;;;4905977;29;20024;-92
2021/12/19 12:57:14;;;;;;;8.18;3.33;;;7.70;99.90;;;;;;4908943;29;20059;-90
2021/12/19 12:59:42;;;;;;;6.00;3.30;;;7.70;99.90;;;;;;4924963;29;20024;-91
2021/12/19 13:02:18;;;;;;;6.28;2.97;;;7.80;99.90;;;;;;4906375;29;20035;-89
2021/12/19 13:04:46;;;;;;;5.80;2.97;;;7.80;99.90;;;;;;4904616;29;20451;-88
2021/12/19 13:07:17;;;;;;;7.88;3.17;;;7.80;99.90;;;;;;4904234;29;20036;-87
2021/12/19 13:09:51;;;;;;;6.68;2.88;;;7.80;99.90;;;;;;4890576;29;20060;-91
2021/12/19 13:12:36;;;;;;;6.30;2.78;;;7.90;99.90;;;;;;4913385;29;20027;-87
2021/12/19 13:15:23;;;;;;;8.18;2.95;;;7.80;99.90;;;;;;4923721;29;20023;-88
2021/12/19 13:17:51;;;;;;;6.00;2.85;;;7.90;99.90;;;;;;4905483;29;20115;-88
2021/12/19 13:20:18;;;;;;;9.20;3.97;;;7.80;99.90;;;;;;4924595;29;20025;-88
2021/12/19 13:22:47;;;;;;;6.68;2.85;;;7.80;99.90;;;;;;4921642;29;20028;-89
2021/12/19 13:25:22;;;;;;;4.95;3.10;;;7.80;99.90;;;;;;4909114;29;20111;-89
2021/12/19 13:27:57;;;;;;;6.10;3.08;;;7.70;99.90;;;;;;4893095;29;20025;-88
2021/12/19 13:30:31;;;;;;;6.53;2.70;;;7.70;99.90;;;;;;4897740;29;20040;-89
2021/12/19 13:33:04;;;;;;;7.38;2.55;;;7.70;99.90;;;;;;4932186;29;20044;-88
2021/12/19 13:35:35;;;;;;;5.78;2.53;;;7.70;99.90;;;;;;4912779;29;20091;-88
2021/12/19 13:38:08;;;;;;;8.05;2.80;;;7.70;99.90;;;;;;4908806;29;20024;-89
2021/12/19 13:40:43;;;;;;;5.20;2.38;;;7.80;99.90;;;;;;4911081;29;20032;-89
2021/12/19 13:43:10;;;;;;;6.05;2.20;;;7.70;99.90;;;;;;4915954;29;20032;-88
2021/12/19 13:45:49;;;;;;;6.00;2.33;;;7.70;99.90;;;;;;4911091;29;20052;-90
2021/12/19 13:48:25;;;;;;;5.47;2.70;;;7.70;99.90;;;;;;4912185;29;20064;-88
2021/12/19 13:51:02;;;;;;;6.00;2.45;;;7.70;99.90;;;;;;4913915;29;20064;-88
2021/12/19 13:53:31;;;;;;;5.13;1.95;;;7.70;99.90;;;;;;4914585;29;20139;-89
2021/12/19 13:56:15;;;;;;;4.28;2.10;;;7.80;99.90;;;;;;4909123;29;20063;-94
2021/12/19 13:58:45;;;;;;;4.85;2.10;;;7.80;99.90;;;;;;4911781;29;20035;-91
2021/12/19 14:01:16;;;;;;;5.40;2.42;;;7.80;99.90;;;;;;4909926;29;20047;-89
2021/12/19 14:03:57;;;;;;;5.35;2.20;;;7.80;99.90;;;;;;4917065;29;20034;-90
2021/12/19 14:06:35;;;;;;;4.80;2.45;;;7.80;99.90;;;;;;4915119;29;20028;-91
2021/12/19 14:09:26;;;;;;;5.15;2.42;;;7.80;99.90;;;;;;4906782;29;20036;-90
2021/12/19 14:11:57;;;;;;;4.22;2.20;;;7.70;99.90;;;;;;4921015;29;20044;-93
2021/12/19 14:14:31;;;;;;;6.65;2.50;;;7.70;99.90;;;;;;4909111;29;20016;-90